Time;durP1;ratioP1;P1;durP2;ratioP2;P2;SDS_P1;SDS_P2;PMS_P1;PMS_P2;Temp;Humidity;BMP_temperature;BMP_pressure;BME280_temperature;BME280_humidity;BME280_pressure;Samples;Min_cycle;Max_cycle;Signal;HPM_P1;HPM_P2
2022/04/06 00:00:10;;;;;;;;;;;11.70;99.90;12.20;99188.00;;;;345782;28;87318;-91
2022/04/06 00:00:21;;;;;;;;;;;11.80;99.90;12.10;99186.00;;;;347144;28;91458;-92
2022/04/06 00:00:34;;;;;;;;;;;11.80;99.90;12.10;99189.00;;;;345760;28;88102;-92
2022/04/06 00:00:46;;;;;;;;;;;11.80;99.90;12.10;99187.00;;;;347697;27;90541;-92
2022/04/06 00:00:58;;;;;;;;;;;11.80;99.90;12.10;99186.00;;;;348547;27;86789;-92
2022/04/06 00:01:10;;;;;;;;;;;11.70;99.90;12.10;99180.00;;;;347390;28;88200;-92
2022/04/06 00:01:22;;;;;;;;;;;11.80;99.90;12.00;99187.00;;;;345820;28;86853;-92
2022/04/06 00:01:35;;;;;;;;;;;11.70;99.90;12.10;99188.00;;;;347289;27;90902;-93
2022/04/06 00:01:47;;;;;;;;;;;11.70;99.90;12.10;99186.00;;;;345099;28;87651;-92
2022/04/06 00:01:59;;;;;;;;;;;11.70;99.90;12.10;99188.00;;;;347328;28;91006;-92
2022/04/06 00:02:11;;;;;;;;;;;11.70;99.90;12.20;99181.00;;;;347111;27;87938;-92
2022/04/06 00:02:23;;;;;;;;;;;11.70;99.90;12.20;99185.00;;;;347361;28;89413;-92
2022/04/06 00:02:39;;;;;;;;;;;11.70;99.90;12.10;99183.00;;;;348609;27;87035;-92
2022/04/06 00:02:51;;;;;;;;;;;11.70;99.90;12.00;99184.00;;;;345942;28;90829;-92
2022/04/06 00:03:03;;;;;;;;;;;11.70;99.90;12.00;99185.00;;;;345823;28;86725;-92
2022/04/06 00:03:15;;;;;;;;;;;11.70;99.90;12.00;99184.00;;;;346055;28;90297;-92
2022/04/06 00:03:27;;;;;;;;;;;11.70;99.90;12.00;99182.00;;;;343034;28;87968;-92
2022/04/06 00:03:40;;;;;;;;;;;11.70;99.90;12.00;99181.00;;;;348638;27;89564;-92
2022/04/06 00:03:52;;;;;;;;;;;11.70;99.90;11.90;99179.00;;;;348446;27;88146;-92
2022/04/06 00:04:04;;;;;;;;;;;11.70;99.90;12.00;99180.00;;;;347250;28;90693;-91
2022/04/06 00:04:16;;;;;;;;;;;11.70;99.90;12.00;99183.00;;;;344078;28;86999;-92
2022/04/06 00:04:28;;;;;;;;;;;11.70;99.90;12.00;99186.00;;;;339124;28;89988;-92
2022/04/06 00:04:40;;;;;;;;;;;11.70;99.90;12.00;99180.00;;;;336206;28;87178;-92
2022/04/06 00:04:52;;;;;;;;;;;11.70;99.90;12.00;99182.00;;;;338978;28;90090;-92
2022/04/06 00:05:06;;;;;;;;;;;11.70;99.90;12.00;99182.00;;;;337515;28;87360;-92
2022/04/06 00:05:18;;;;;;;;;;;11.70;99.90;11.90;99183.00;;;;337867;28;87368;-92
2022/04/06 00:05:30;;;;;;;;;;;11.60;99.90;12.00;99182.00;;;;340180;28;87785;-92
2022/04/06 00:05:42;;;;;;;;;;;11.60;99.90;12.00;99179.00;;;;337720;28;88879;-92
2022/04/06 00:05:54;;;;;;;;;;;11.60;99.90;12.00;99180.00;;;;336141;28;88521;-92
2022/04/06 00:06:05;;;;;;;;;;;11.70;99.90;12.00;99184.00;;;;340425;28;89462;-92
2022/04/06 00:06:17;;;;;;;;;;;11.70;99.90;12.00;99183.00;;;;338711;28;88748;-92
2022/04/06 00:06:52;;;;;;;;;;;11.70;99.90;12.00;99181.00;;;;340202;28;90772;-92
2022/04/06 00:07:04;;;;;;;;;;;11.60;99.90;12.00;99187.00;;;;345943;28;86885;-93
2022/04/06 00:07:16;;;;;;;;;;;11.70;99.90;12.00;99188.00;;;;342814;28;90626;-92
2022/04/06 00:07:28;;;;;;;;;;;11.60;99.90;12.00;99176.00;;;;337438;28;88293;-92
2022/04/06 00:07:40;;;;;;;;;;;11.70;99.90;12.00;99182.00;;;;339038;28;90051;-92
2022/04/06 00:07:52;;;;;;;;;;;11.70;99.90;12.00;99180.00;;;;336218;28;86155;-92
2022/04/06 00:08:04;;;;;;;;;;;11.70;99.90;12.00;99180.00;;;;344683;28;90267;-92
2022/04/06 00:08:16;;;;;;;;;;;11.70;99.90;11.90;99183.00;;;;337427;28;88180;-92
2022/04/06 00:08:28;;;;;;;;;;;11.60;99.90;12.00;99183.00;;;;336430;28;89912;-92
2022/04/06 00:08:40;;;;;;;;;;;11.60;99.90;12.00;99186.00;;;;337547;28;86995;-92
2022/04/06 00:08:52;;;;;;;;;;;11.60;99.90;12.10;99176.00;;;;337635;28;90859;-91
2022/04/06 00:09:04;;;;;;;;;;;11.70;99.90;12.10;99179.00;;;;338823;28;87000;-91
2022/04/06 00:09:15;;;;;;;;;;;11.70;99.90;12.10;99181.00;;;;337768;28;90235;-92
2022/04/06 00:09:27;;;;;;;;;;;11.70;99.90;12.10;99179.00;;;;338858;28;87942;-92
2022/04/06 00:09:39;;;;;;;;;;;11.70;99.90;12.10;99182.00;;;;338995;28;90476;-92
2022/04/06 00:09:51;;;;;;;;;;;11.70;99.90;12.00;99176.00;;;;345361;28;87078;-92
2022/04/06 00:10:04;;;;;;;;;;;11.70;99.90;12.00;99179.00;;;;339237;28;91010;-92
2022/04/06 00:10:16;;;;;;;;;;;11.70;99.90;12.00;99178.00;;;;339058;28;87046;-92
2022/04/06 00:10:29;;;;;;;;;;;11.70;99.90;11.90;99175.00;;;;337708;28;88383;-92
2022/04/06 00:10:41;;;;;;;;;;;11.70;99.90;11.90;99185.00;;;;338828;28;86989;-92
2022/04/06 00:10:52;;;;;;;;;;;11.60;99.90;11.80;99178.00;;;;339022;28;89068;-92
2022/04/06 00:11:04;;;;;;;;;;;11.70;99.90;11.80;99176.00;;;;338815;28;88486;-92
2022/04/06 00:11:16;;;;;;;;;;;11.60;99.90;11.80;99180.00;;;;339068;28;89852;-93
2022/04/06 00:11:28;;;;;;;;;;;11.60;99.90;11.80;99182.00;;;;337500;28;86839;-92
2022/04/06 00:11:40;;;;;;;;;;;11.60;99.90;11.80;99179.00;;;;337730;28;89977;-92
2022/04/06 00:11:51;;;;;;;;;;;11.60;99.90;11.80;99183.00;;;;340199;28;86844;-92
2022/04/06 00:12:04;;;;;;;;;;;11.60;99.90;11.80;99181.00;;;;339032;28;91484;-92
2022/04/06 00:12:16;;;;;;;;;;;11.60;99.90;11.80;99177.00;;;;337421;28;87874;-92
2022/04/06 00:12:28;;;;;;;;;;;11.60;99.90;11.80;99180.00;;;;339039;28;90179;-92
2022/04/06 00:12:40;;;;;;;;;;;11.60;99.90;11.80;99183.00;;;;338584;28;87185;-92
2022/04/06 00:12:52;;;;;;;;;;;11.60;99.90;11.80;99180.00;;;;344676;27;88925;-92
2022/04/06 00:13:04;;;;;;;;;;;11.60;99.90;11.80;99172.00;;;;336155;28;87461;-92
2022/04/06 00:13:17;;;;;;;;;;;11.60;99.90;11.80;99176.00;;;;338464;28;90726;-92
2022/04/06 00:13:29;;;;;;;;;;;11.60;99.90;11.80;99183.00;;;;340114;28;87848;-92
2022/04/06 00:13:41;;;;;;;;;;;11.60;99.90;11.80;99182.00;;;;337581;28;90060;-92
2022/04/06 00:13:53;;;;;;;;;;;11.60;99.90;11.80;99179.00;;;;337580;28;86311;-92
2022/04/06 00:14:05;;;;;;;;;;;11.60;99.90;11.80;99182.00;;;;336387;28;89965;-92
2022/04/06 00:14:17;;;;;;;;;;;11.60;99.90;11.90;99180.00;;;;338833;28;87725;-92
2022/04/06 00:14:29;;;;;;;;;;;11.60;99.90;11.90;99185.00;;;;339052;28;90580;-92
2022/04/06 00:14:41;;;;;;;;;;;11.60;99.90;11.90;99179.00;;;;338795;28;87626;-92
2022/04/06 00:14:53;;;;;;;;;;;11.60;99.90;11.90;99180.00;;;;337676;28;89737;-92
2022/04/06 00:15:06;;;;;;;;;;;11.60;99.90;12.00;99176.00;;;;338758;28;87987;-92
2022/04/06 00:15:18;;;;;;;;;;;11.60;99.90;11.90;99179.00;;;;336439;28;90608;-92
2022/04/06 00:15:30;;;;;;;;;;;11.60;99.90;11.90;99186.00;;;;337384;28;88019;-92
2022/04/06 00:15:42;;;;;;;;;;;11.60;99.90;12.00;99181.00;;;;339637;28;89856;-92
2022/04/06 00:15:54;;;;;;;;;;;11.60;99.90;12.10;99178.00;;;;338654;28;87303;-92
2022/04/06 00:16:06;;;;;;;;;;;11.60;99.90;12.00;99179.00;;;;344556;28;90894;-92
2022/04/06 00:16:18;;;;;;;;;;;11.60;99.90;12.10;99182.00;;;;339929;28;87604;-92
2022/04/06 00:16:30;;;;;;;;;;;11.60;99.90;12.10;99184.00;;;;337693;28;89978;-92
2022/04/06 00:16:43;;;;;;;;;;;11.60;99.90;12.10;99180.00;;;;338711;28;86979;-92
2022/04/06 00:16:54;;;;;;;;;;;11.60;99.90;12.20;99180.00;;;;337623;28;89920;-93
2022/04/06 00:17:07;;;;;;;;;;;11.60;99.90;12.10;99179.00;;;;338831;28;87192;-93
2022/04/06 00:17:19;;;;;;;;;;;11.70;99.90;12.20;99179.00;;;;337627;28;89622;-92
2022/04/06 00:17:31;;;;;;;;;;;11.70;99.90;12.20;99189.00;;;;339976;28;87807;-92
2022/04/06 00:17:43;;;;;;;;;;;11.70;99.90;12.30;99185.00;;;;338961;28;90290;-92
2022/04/06 00:17:55;;;;;;;;;;;11.70;99.90;12.20;99183.00;;;;336196;28;88261;-92
2022/04/06 00:18:06;;;;;;;;;;;11.70;99.90;12.20;99184.00;;;;337758;28;87254;-92
2022/04/06 00:18:18;;;;;;;;;;;11.70;99.90;12.20;99179.00;;;;338783;28;88455;-92
2022/04/06 00:18:30;;;;;;;;;;;11.70;99.90;12.10;99183.00;;;;339120;28;89410;-92
2022/04/06 00:18:42;;;;;;;;;;;11.70;99.90;12.10;99190.00;;;;338540;28;87160;-92
2022/04/06 00:18:54;;;;;;;;;;;11.70;99.90;12.00;99185.00;;;;343257;28;91153;-92
2022/04/06 00:19:05;;;;;;;;;;;11.70;99.90;12.00;99188.00;;;;340101;28;88264;-92
2022/04/06 00:19:17;;;;;;;;;;;11.70;99.90;12.00;99184.00;;;;338938;28;90926;-92
2022/04/06 00:19:30;;;;;;;;;;;11.70;99.90;12.00;99185.00;;;;338791;28;87125;-92
2022/04/06 00:19:42;;;;;;;;;;;11.70;99.90;12.00;99172.00;;;;337808;28;89179;-92
2022/04/06 00:19:54;;;;;;;;;;;11.70;99.90;12.00;99185.00;;;;338590;28;87881;-92
2022/04/06 00:20:07;;;;;;;;;;;11.70;99.90;12.00;99185.00;;;;337641;28;91104;-92
2022/04/06 00:20:19;;;;;;;;;;;11.70;99.90;12.00;99181.00;;;;337442;28;87058;-91
2022/04/06 00:20:31;;;;;;;;;;;11.70;99.90;12.10;99180.00;;;;337751;28;90035;-92
2022/04/06 00:20:42;;;;;;;;;;;11.70;99.90;12.10;99191.00;;;;338765;28;86941;-92
2022/04/06 00:20:54;;;;;;;;;;;11.70;99.90;12.10;99181.00;;;;340338;28;90559;-92
2022/04/06 00:21:06;;;;;;;;;;;11.70;99.90;12.10;99187.00;;;;340095;28;87901;-92
2022/04/06 00:21:19;;;;;;;;;;;11.70;99.90;12.00;99189.00;;;;340423;28;89818;-91
2022/04/06 00:21:31;;;;;;;;;;;11.70;99.90;12.00;99181.00;;;;340206;28;86999;-92
2022/04/06 00:21:42;;;;;;;;;;;11.70;99.90;12.00;99188.00;;;;337754;28;90197;-93
2022/04/06 00:21:54;;;;;;;;;;;11.70;99.90;12.00;99183.00;;;;341722;28;88651;-92
2022/04/06 00:22:06;;;;;;;;;;;11.70;99.90;12.00;99180.00;;;;339051;28;89326;-92
2022/04/06 00:22:18;;;;;;;;;;;11.70;99.90;11.90;99187.00;;;;339704;28;87962;-92
2022/04/06 00:22:30;;;;;;;;;;;11.70;99.90;11.90;99177.00;;;;339195;28;87534;-92
2022/04/06 00:22:42;;;;;;;;;;;11.70;99.90;12.00;99182.00;;;;336107;28;86981;-92
2022/04/06 00:22:54;;;;;;;;;;;11.70;99.90;11.90;99185.00;;;;338932;28;88474;-92
2022/04/06 00:23:06;;;;;;;;;;;11.70;99.90;11.90;99185.00;;;;338669;28;86899;-92
2022/04/06 00:23:17;;;;;;;;;;;11.70;99.90;12.00;99192.00;;;;339034;28;88587;-92
2022/04/06 00:23:29;;;;;;;;;;;11.70;99.90;12.00;99184.00;;;;337329;28;86346;-91
2022/04/06 00:23:41;;;;;;;;;;;11.70;99.90;12.00;99175.00;;;;337701;28;89858;-92
2022/04/06 00:23:53;;;;;;;;;;;11.70;99.90;12.00;99178.00;;;;337517;28;88123;-92
2022/04/06 00:24:05;;;;;;;;;;;11.70;99.90;12.00;99182.00;;;;337694;28;90796;-92
2022/04/06 00:24:17;;;;;;;;;;;11.70;99.90;12.00;99182.00;;;;337514;28;87038;-92
2022/04/06 00:24:29;;;;;;;;;;;11.70;99.90;11.90;99180.00;;;;340353;28;90996;-92
2022/04/06 00:24:40;;;;;;;;;;;11.70;99.90;11.90;99185.00;;;;337715;28;87872;-92
2022/04/06 00:24:52;;;;;;;;;;;11.70;99.90;11.90;99180.00;;;;342585;28;90243;-92
2022/04/06 00:25:04;;;;;;;;;;;11.70;99.90;11.80;99184.00;;;;340155;28;87581;-93
2022/04/06 00:25:16;;;;;;;;;;;11.60;99.90;11.80;99182.00;;;;340211;28;91301;-92
2022/04/06 00:25:28;;;;;;;;;;;11.60;99.90;11.80;99171.00;;;;337496;28;88137;-92
2022/04/06 00:25:40;;;;;;;;;;;11.60;99.90;11.80;99177.00;;;;340273;28;88756;-92
2022/04/06 00:25:51;;;;;;;;;;;11.60;99.90;11.80;99175.00;;;;340036;28;87104;-92
2022/04/06 00:26:03;;;;;;;;;;;11.60;99.90;11.80;99179.00;;;;337760;28;89852;-92
2022/04/06 00:26:15;;;;;;;;;;;11.60;99.90;11.80;99185.00;;;;339963;28;87959;-91
2022/04/06 00:26:27;;;;;;;;;;;11.60;99.90;11.70;99186.00;;;;338960;28;88412;-92
2022/04/06 00:26:39;;;;;;;;;;;11.60;99.90;11.70;99177.00;;;;338805;28;86849;-92
2022/04/06 00:26:51;;;;;;;;;;;11.60;99.90;11.80;99179.00;;;;338922;28;91108;-92
2022/04/06 00:27:02;;;;;;;;;;;11.60;99.90;11.80;99179.00;;;;337469;28;87829;-92
2022/04/06 00:27:14;;;;;;;;;;;11.60;99.90;11.80;99181.00;;;;337747;28;90383;-93
2022/04/06 00:27:26;;;;;;;;;;;11.60;99.90;11.90;99180.00;;;;338883;28;86704;-92
2022/04/06 00:27:38;;;;;;;;;;;11.60;99.90;12.00;99188.00;;;;340409;28;88893;-92
2022/04/06 00:27:50;;;;;;;;;;;11.60;99.90;11.90;99184.00;;;;342389;28;88328;-92
2022/04/06 00:28:02;;;;;;;;;;;11.60;99.90;11.90;99179.00;;;;340403;28;91128;-92
2022/04/06 00:28:13;;;;;;;;;;;11.60;99.90;11.90;99184.00;;;;338613;28;88034;-92
2022/04/06 00:28:25;;;;;;;;;;;11.60;99.90;11.90;99177.00;;;;337807;28;90073;-92
2022/04/06 00:28:37;;;;;;;;;;;11.60;99.90;11.90;99181.00;;;;340142;28;88091;-92
2022/04/06 00:28:49;;;;;;;;;;;11.60;99.90;11.90;99174.00;;;;338941;28;89666;-92
2022/04/06 00:29:00;;;;;;;;;;;11.60;99.90;11.90;99183.00;;;;338754;28;86976;-93
2022/04/06 00:29:12;;;;;;;;;;;11.60;99.90;12.00;99181.00;;;;339081;28;90634;-92
2022/04/06 00:29:24;;;;;;;;;;;11.60;99.90;12.00;99182.00;;;;337439;28;88163;-92
2022/04/06 00:29:36;;;;;;;;;;;11.60;99.90;12.10;99173.00;;;;337643;28;90463;-92
2022/04/06 00:29:48;;;;;;;;;;;11.60;99.90;12.10;99173.00;;;;337457;28;88002;-92
2022/04/06 00:30:00;;;;;;;;;;;11.60;99.90;12.20;99173.00;;;;336368;28;91401;-92
2022/04/06 00:30:11;;;;;;;;;;;11.60;99.90;12.20;99173.00;;;;337350;28;87137;-92
2022/04/06 00:30:23;;;;;;;;;;;11.60;99.90;12.20;99180.00;;;;336116;28;89494;-92
2022/04/06 00:30:35;;;;;;;;;;;11.60;99.90;12.00;99177.00;;;;338781;28;87064;-92
2022/04/06 00:30:47;;;;;;;;;;;11.60;99.90;12.00;99181.00;;;;340711;28;89925;-92
2022/04/06 00:30:59;;;;;;;;;;;11.60;99.90;12.10;99172.00;;;;343248;28;87161;-92
2022/04/06 00:31:13;;;;;;;;;;;11.60;99.90;12.20;99178.00;;;;337831;28;89961;-92
2022/04/06 00:31:24;;;;;;;;;;;11.70;99.90;12.20;99171.00;;;;338703;28;86101;-92
2022/04/06 00:31:36;;;;;;;;;;;11.70;99.90;12.20;99168.00;;;;337728;28;89581;-92
2022/04/06 00:31:48;;;;;;;;;;;11.70;99.90;12.20;99171.00;;;;340041;28;87261;-92
2022/04/06 00:32:00;;;;;;;;;;;11.70;99.90;12.20;99173.00;;;;339042;28;90172;-91
2022/04/06 00:32:12;;;;;;;;;;;11.70;99.90;12.10;99168.00;;;;338696;28;86841;-92
2022/04/06 00:32:24;;;;;;;;;;;11.70;99.90;12.10;99178.00;;;;337794;28;88373;-92
2022/04/06 00:32:36;;;;;;;;;;;11.70;99.90;12.00;99184.00;;;;340222;28;87166;-92
2022/04/06 00:32:48;;;;;;;;;;;11.70;99.90;12.00;99171.00;;;;338964;28;90832;-92
2022/04/06 00:33:00;;;;;;;;;;;11.70;99.90;12.10;99173.00;;;;338835;28;87300;-92
2022/04/06 00:33:12;;;;;;;;;;;11.70;99.90;12.00;99165.00;;;;339043;28;90752;-93
2022/04/06 00:33:23;;;;;;;;;;;11.70;99.90;12.10;99178.00;;;;337558;28;87041;-92
2022/04/06 00:33:36;;;;;;;;;;;11.70;99.90;12.10;99175.00;;;;340288;28;89015;-92
2022/04/06 00:33:48;;;;;;;;;;;11.70;99.90;12.10;99171.00;;;;341086;28;87725;-93
2022/04/06 00:34:00;;;;;;;;;;;11.70;99.90;12.10;99178.00;;;;345915;28;91288;-92
2022/04/06 00:34:11;;;;;;;;;;;11.70;99.90;12.00;99170.00;;;;343255;28;86981;-93
2022/04/06 00:35:28;;;;;;;;;;;11.70;99.90;12.00;99167.00;;;;338944;28;89892;-91
2022/04/06 00:35:28;;;;;;;;;;;11.70;99.90;12.00;99168.00;;;;339178;28;89725;-92
2022/04/06 00:35:40;;;;;;;;;;;11.70;99.90;11.90;99162.00;;;;337369;28;87369;-92
2022/04/06 00:35:52;;;;;;;;;;;11.70;99.90;11.90;99173.00;;;;337733;28;91208;-93
2022/04/06 00:36:04;;;;;;;;;;;11.70;99.90;11.90;99172.00;;;;339024;28;86114;-92
2022/04/06 00:36:15;;;;;;;;;;;11.70;99.90;11.90;99176.00;;;;339099;28;89039;-91
2022/04/06 00:36:27;;;;;;;;;;;11.70;99.90;11.90;99175.00;;;;337627;28;87995;-92
2022/04/06 00:36:39;;;;;;;;;;;11.70;99.90;11.90;99180.00;;;;336466;28;89533;-92
2022/04/06 00:36:51;;;;;;;;;;;11.70;99.90;11.90;99172.00;;;;343569;28;88173;-92
2022/04/06 00:37:03;;;;;;;;;;;11.60;99.90;11.90;99167.00;;;;338431;28;90459;-93
2022/04/06 00:37:15;;;;;;;;;;;11.70;99.90;12.00;99168.00;;;;344341;28;86897;-92
2022/04/06 00:37:26;;;;;;;;;;;11.70;99.90;12.00;99165.00;;;;343223;28;90795;-92
2022/04/06 00:37:38;;;;;;;;;;;11.70;99.90;12.00;99163.00;;;;337480;28;87061;-92
2022/04/06 00:37:50;;;;;;;;;;;11.70;99.90;12.00;99170.00;;;;338770;28;89537;-92
2022/04/06 00:38:03;;;;;;;;;;;11.70;99.90;12.00;99164.00;;;;338846;28;86898;-92
2022/04/06 00:38:15;;;;;;;;;;;11.70;99.90;12.00;99168.00;;;;340280;28;90127;-92
2022/04/06 00:38:27;;;;;;;;;;;11.70;99.90;12.00;99172.00;;;;338775;28;87979;-93
2022/04/06 00:38:39;;;;;;;;;;;11.70;99.90;12.00;99167.00;;;;339045;28;90669;-92
2022/04/06 00:38:51;;;;;;;;;;;11.70;99.90;12.00;99170.00;;;;340087;28;86923;-92
2022/04/06 00:39:03;;;;;;;;;;;11.70;99.90;12.00;99166.00;;;;337707;28;90730;-92
2022/04/06 00:39:14;;;;;;;;;;;11.60;99.90;12.00;99173.00;;;;337567;28;87387;-92
2022/04/06 00:39:27;;;;;;;;;;;11.70;99.90;12.00;99167.00;;;;336336;28;90915;-92
2022/04/06 00:39:38;;;;;;;;;;;11.70;99.90;12.00;99164.00;;;;338578;28;87881;-92
2022/04/06 00:39:50;;;;;;;;;;;11.70;99.90;12.00;99165.00;;;;338541;28;90732;-93
2022/04/06 00:40:03;;;;;;;;;;;11.70;99.90;12.10;99162.00;;;;340172;28;86944;-92
2022/04/06 00:40:15;;;;;;;;;;;11.70;99.90;12.00;99169.00;;;;340873;28;89965;-92
2022/04/06 00:40:26;;;;;;;;;;;11.70;99.90;12.00;99162.00;;;;338870;28;87008;-92
2022/04/06 00:40:38;;;;;;;;;;;11.70;99.90;12.10;99164.00;;;;339033;28;91114;-92
2022/04/06 00:40:50;;;;;;;;;;;11.70;99.90;12.10;99164.00;;;;337343;28;87556;-92
2022/04/06 00:41:02;;;;;;;;;;;11.70;99.90;12.10;99165.00;;;;338989;28;89585;-92
2022/04/06 00:41:14;;;;;;;;;;;11.70;99.90;12.10;99170.00;;;;336112;28;87989;-92
2022/04/06 00:41:26;;;;;;;;;;;11.70;99.90;12.20;99162.00;;;;338985;28;90634;-93
2022/04/06 00:41:39;;;;;;;;;;;11.70;99.90;12.10;99160.00;;;;338807;28;87959;-93
2022/04/06 00:41:50;;;;;;;;;;;11.70;99.90;12.10;99161.00;;;;336318;28;90877;-93
2022/04/06 00:42:04;;;;;;;;;;;11.70;99.90;12.10;99162.00;;;;338891;28;86889;-92
2022/04/06 00:42:16;;;;;;;;;;;11.70;99.90;12.10;99158.00;;;;336307;28;89988;-92
2022/04/06 00:42:27;;;;;;;;;;;11.70;99.90;12.00;99156.00;;;;337466;28;88014;-92
2022/04/06 00:42:39;;;;;;;;;;;11.70;99.90;12.00;99159.00;;;;337628;28;89610;-91
2022/04/06 00:42:53;;;;;;;;;;;11.70;99.90;12.00;99161.00;;;;343387;28;87113;-92
2022/04/06 00:43:06;;;;;;;;;;;11.70;99.90;12.10;99160.00;;;;335166;29;89596;-92
2022/04/06 00:43:18;;;;;;;;;;;11.70;99.90;12.00;99162.00;;;;338169;28;87903;-92
2022/04/06 00:43:31;;;;;;;;;;;11.70;99.90;12.00;99157.00;;;;339034;28;90639;-92
2022/04/06 00:43:42;;;;;;;;;;;11.70;99.90;12.00;99160.00;;;;340147;28;86943;-92
2022/04/06 00:44:13;;;;;;;;;;;11.70;99.90;12.10;99164.00;;;;336416;28;90094;-92
2022/04/06 00:44:28;;;;;;;;;;;11.70;99.90;12.10;99155.00;;;;337463;28;88220;-92
2022/04/06 00:44:39;;;;;;;;;;;11.70;99.90;12.20;99155.00;;;;339161;28;89965;-92
2022/04/06 00:44:51;;;;;;;;;;;11.70;99.90;12.20;99156.00;;;;338753;28;86659;-92
2022/04/06 00:45:03;;;;;;;;;;;11.70;99.90;12.20;99152.00;;;;337712;28;91948;-92
2022/04/06 00:45:15;;;;;;;;;;;11.70;99.90;12.10;99155.00;;;;338807;28;86791;-92
2022/04/06 00:45:27;;;;;;;;;;;11.70;99.90;12.00;99153.00;;;;339026;28;88717;-92
2022/04/06 00:45:39;;;;;;;;;;;11.70;99.90;12.00;99157.00;;;;338775;28;86954;-92
2022/04/06 00:45:51;;;;;;;;;;;11.70;99.90;12.00;99164.00;;;;342607;28;90171;-92
2022/04/06 00:46:03;;;;;;;;;;;11.70;99.90;12.00;99154.00;;;;338843;28;87959;-92
2022/04/06 00:46:15;;;;;;;;;;;11.70;99.90;12.00;99148.00;;;;338696;28;90816;-92
2022/04/06 00:46:27;;;;;;;;;;;11.70;99.90;12.00;99157.00;;;;337559;28;86827;-92
2022/04/06 00:46:39;;;;;;;;;;;11.70;99.90;12.10;99164.00;;;;337780;28;89474;-92
2022/04/06 00:46:51;;;;;;;;;;;11.70;99.90;12.10;99158.00;;;;338672;28;87240;-92
2022/04/06 00:47:04;;;;;;;;;;;11.70;99.90;12.00;99156.00;;;;336361;28;89206;-93
2022/04/06 00:47:15;;;;;;;;;;;11.70;99.90;12.00;99156.00;;;;337560;28;86843;-92
2022/04/06 00:47:27;;;;;;;;;;;11.70;99.90;12.00;99155.00;;;;337643;28;90876;-92
2022/04/06 00:47:39;;;;;;;;;;;11.70;99.90;12.00;99157.00;;;;338823;28;87009;-92
2022/04/06 00:47:51;;;;;;;;;;;11.70;99.90;12.00;99151.00;;;;337676;28;88201;-92
2022/04/06 00:48:04;;;;;;;;;;;11.70;99.90;12.00;99152.00;;;;337439;28;88352;-92
2022/04/06 00:48:16;;;;;;;;;;;11.70;99.90;12.00;99153.00;;;;338876;28;91000;-93
2022/04/06 00:48:28;;;;;;;;;;;11.70;99.90;12.10;99156.00;;;;337274;28;86701;-92
2022/04/06 00:48:40;;;;;;;;;;;11.70;99.90;12.00;99153.00;;;;338818;28;90081;-92
2022/04/06 00:48:52;;;;;;;;;;;11.70;99.90;12.00;99151.00;;;;342719;28;86647;-91
2022/04/06 00:49:11;;;;;;;;;;;11.70;99.90;12.00;99152.00;;;;339027;28;90748;-92
2022/04/06 00:49:23;;;;;;;;;;;11.70;99.90;12.00;99150.00;;;;336154;28;88017;-92
2022/04/06 00:49:35;;;;;;;;;;;11.70;99.90;12.00;99151.00;;;;337599;28;89522;-93
2022/04/06 00:49:47;;;;;;;;;;;11.70;99.90;12.00;99156.00;;;;337977;28;86983;-92
2022/04/06 00:49:58;;;;;;;;;;;11.70;99.90;12.00;99153.00;;;;337731;28;89725;-92
2022/04/06 00:50:10;;;;;;;;;;;11.70;99.90;12.00;99151.00;;;;338787;28;87823;-92
2022/04/06 00:50:23;;;;;;;;;;;11.70;99.90;12.00;99155.00;;;;337694;28;89530;-92
2022/04/06 00:50:36;;;;;;;;;;;11.70;99.90;12.00;99147.00;;;;337479;28;88010;-92
2022/04/06 00:50:48;;;;;;;;;;;11.70;99.90;12.00;99159.00;;;;337700;28;90287;-93
2022/04/06 00:51:00;;;;;;;;;;;11.70;99.90;12.00;99153.00;;;;337420;28;86989;-92
2022/04/06 00:51:11;;;;;;;;;;;11.70;99.90;11.90;99156.00;;;;341663;28;89659;-92
2022/04/06 00:51:23;;;;;;;;;;;11.70;99.90;11.90;99155.00;;;;340066;28;89202;-92
2022/04/06 00:51:35;;;;;;;;;;;11.70;99.90;11.90;99147.00;;;;337497;28;91179;-92
2022/04/06 00:51:47;;;;;;;;;;;11.70;99.90;12.00;99156.00;;;;341424;28;87640;-92
2022/04/06 00:52:01;;;;;;;;;;;11.60;99.90;12.10;99154.00;;;;343390;28;89272;-92
2022/04/06 00:52:13;;;;;;;;;;;11.60;99.90;12.00;99147.00;;;;339779;28;87014;-92
2022/04/06 00:52:24;;;;;;;;;;;11.70;99.90;12.00;99152.00;;;;341679;28;89630;-92
2022/04/06 00:52:37;;;;;;;;;;;11.70;99.90;12.00;99154.00;;;;337428;28;87602;-92
2022/04/06 00:52:48;;;;;;;;;;;11.70;99.90;12.00;99148.00;;;;338094;28;90171;-92
2022/04/06 00:53:00;;;;;;;;;;;11.70;99.90;12.00;99155.00;;;;340054;28;87476;-92
2022/04/06 00:53:12;;;;;;;;;;;11.70;99.90;12.00;99156.00;;;;340344;28;90594;-92
2022/04/06 00:53:24;;;;;;;;;;;11.70;99.90;12.00;99153.00;;;;337444;28;88413;-92
2022/04/06 00:53:37;;;;;;;;;;;11.70;99.90;12.00;99161.00;;;;338875;28;91278;-92
2022/04/06 00:53:49;;;;;;;;;;;11.70;99.90;12.00;99149.00;;;;337490;28;86999;-92
2022/04/06 00:54:00;;;;;;;;;;;11.70;99.90;12.00;99149.00;;;;337651;28;89763;-92
2022/04/06 00:54:16;;;;;;;;;;;11.70;99.90;12.10;99156.00;;;;337426;28;86993;-92
2022/04/06 00:54:29;;;;;;;;;;;11.70;99.90;12.10;99160.00;;;;340269;28;90907;-92
2022/04/06 00:54:41;;;;;;;;;;;11.70;99.90;12.10;99145.00;;;;338289;28;88308;-92
2022/04/06 00:54:53;;;;;;;;;;;11.70;99.90;12.10;99151.00;;;;344029;28;89254;-92
2022/04/06 00:55:06;;;;;;;;;;;11.70;99.90;12.10;99147.00;;;;338451;28;88200;-92
2022/04/06 00:55:18;;;;;;;;;;;11.70;99.90;12.10;99151.00;;;;337591;28;89677;-92
2022/04/06 00:55:31;;;;;;;;;;;11.70;99.90;12.20;99147.00;;;;338787;28;87713;-92
2022/04/06 00:55:43;;;;;;;;;;;11.70;99.90;12.10;99158.00;;;;338889;28;90714;-92
2022/04/06 00:55:55;;;;;;;;;;;11.70;99.90;12.20;99152.00;;;;337377;28;88281;-92
2022/04/06 00:56:07;;;;;;;;;;;11.70;99.90;12.10;99148.00;;;;337415;28;90886;-92
2022/04/06 00:56:19;;;;;;;;;;;11.70;99.90;12.10;99158.00;;;;337384;28;86949;-92
2022/04/06 00:56:30;;;;;;;;;;;11.70;99.90;12.10;99159.00;;;;339054;28;89745;-92
2022/04/06 00:56:43;;;;;;;;;;;11.70;99.90;12.10;99158.00;;;;340015;28;86403;-91
2022/04/06 00:56:55;;;;;;;;;;;11.70;99.90;12.10;99153.00;;;;336304;28;90525;-92
2022/04/06 00:57:07;;;;;;;;;;;11.70;99.90;12.10;99156.00;;;;338694;28;86916;-92
2022/04/06 00:57:19;;;;;;;;;;;11.70;99.90;12.10;99150.00;;;;337673;28;90155;-92
2022/04/06 00:57:38;;;;;;;;;;;11.70;99.90;12.00;99164.00;;;;341293;28;87296;-93
2022/04/06 00:57:50;;;;;;;;;;;11.80;99.90;12.00;99152.00;;;;344216;28;91258;-93
2022/04/06 00:58:02;;;;;;;;;;;11.70;99.90;12.00;99148.00;;;;340011;28;87142;-92
2022/04/06 00:58:14;;;;;;;;;;;11.70;99.90;12.00;99156.00;;;;337636;28;89874;-92
2022/04/06 00:58:26;;;;;;;;;;;11.70;99.90;12.00;99149.00;;;;337589;28;86840;-92
2022/04/06 00:58:38;;;;;;;;;;;11.70;99.90;12.10;99155.00;;;;338932;28;90985;-93
2022/04/06 00:58:49;;;;;;;;;;;11.70;99.90;12.10;99156.00;;;;339667;28;86992;-92
2022/04/06 00:59:02;;;;;;;;;;;11.70;99.90;12.00;99153.00;;;;339148;28;89209;-92
2022/04/06 00:59:17;;;;;;;;;;;11.70;99.90;12.10;99151.00;;;;340123;28;87001;-91
2022/04/06 00:59:29;;;;;;;;;;;11.80;99.90;12.10;99149.00;;;;337716;28;89372;-92
2022/04/06 00:59:41;;;;;;;;;;;11.70;99.90;12.20;99156.00;;;;338807;28;86676;-92
2022/04/06 00:59:58;;;;;;;;;;;11.80;99.90;12.20;99157.00;;;;340243;28;88779;-92
2022/04/06 01:00:10;;;;;;;;;;;11.70;99.90;12.10;99150.00;;;;340064;28;87691;-92
2022/04/06 01:00:22;;;;;;;;;;;11.70;99.90;12.20;99149.00;;;;337693;28;90534;-92
2022/04/06 01:00:34;;;;;;;;;;;11.70;99.90;12.10;99152.00;;;;337559;28;86854;-92
2022/04/06 01:00:46;;;;;;;;;;;11.70;99.90;12.20;99152.00;;;;339932;28;91150;-92
2022/04/06 01:00:57;;;;;;;;;;;11.70;99.90;12.20;99144.00;;;;337812;28;88265;-92
2022/04/06 01:01:09;;;;;;;;;;;11.80;99.90;12.10;99150.00;;;;340401;28;89751;-92
2022/04/06 01:01:21;;;;;;;;;;;11.80;99.90;12.00;99149.00;;;;337488;28;88113;-92
2022/04/06 01:01:33;;;;;;;;;;;11.70;99.90;12.00;99151.00;;;;337563;28;90903;-92